sensor_id;sensor_type;location;lat;lon;timestamp;temperature;humidity
10155;DHT22;5118;48.570;7.916;2022-09-09T00:02:02;19.20;99.90
10155;DHT22;5118;48.570;7.916;2022-09-09T00:04:35;19.30;99.90
10155;DHT22;5118;48.570;7.916;2022-09-09T00:07:07;19.30;99.90
10155;DHT22;5118;48.570;7.916;2022-09-09T00:09:43;19.40;99.90
10155;DHT22;5118;48.570;7.916;2022-09-09T00:12:19;19.40;99.90
10155;DHT22;5118;48.570;7.916;2022-09-09T00:14:54;19.50;99.90
10155;DHT22;5118;48.570;7.916;2022-09-09T00:17:45;19.50;99.90
10155;DHT22;5118;48.570;7.916;2022-09-09T00:20:22;19.40;99.90
10155;DHT22;5118;48.570;7.916;2022-09-09T00:22:59;19.30;99.90
10155;DHT22;5118;48.570;7.916;2022-09-09T00:25:31;19.20;99.90
10155;DHT22;5118;48.570;7.916;2022-09-09T00:28:02;19.00;99.90
10155;DHT22;5118;48.570;7.916;2022-09-09T00:30:33;18.80;99.90
10155;DHT22;5118;48.570;7.916;2022-09-09T00:33:10;18.50;99.90
10155;DHT22;5118;48.570;7.916;2022-09-09T00:35:45;18.10;99.90
10155;DHT22;5118;48.570;7.916;2022-09-09T00:38:18;17.90;99.90
10155;DHT22;5118;48.570;7.916;2022-09-09T00:40:51;17.70;99.90
10155;DHT22;5118;48.570;7.916;2022-09-09T00:43:26;17.50;99.90
10155;DHT22;5118;48.570;7.916;2022-09-09T00:49:19;17.30;99.90
10155;DHT22;5118;48.570;7.916;2022-09-09T00:51:59;17.30;99.90
10155;DHT22;5118;48.570;7.916;2022-09-09T00:54:40;17.30;99.90
10155;DHT22;5118;48.570;7.916;2022-09-09T00:57:25;17.30;99.90
10155;DHT22;5118;48.570;7.916;2022-09-09T01:00:00;17.40;99.90
10155;DHT22;5118;48.570;7.916;2022-09-09T01:02:38;17.40;99.90
10155;DHT22;5118;48.570;7.916;2022-09-09T01:05:13;17.40;99.90
10155;DHT22;5118;48.570;7.916;2022-09-09T01:07:47;17.50;99.90
10155;DHT22;5118;48.570;7.916;2022-09-09T01:10:32;17.50;99.90
10155;DHT22;5118;48.570;7.916;2022-09-09T01:13:11;17.50;99.90
10155;DHT22;5118;48.570;7.916;2022-09-09T01:15:43;17.60;99.90
10155;DHT22;5118;48.570;7.916;2022-09-09T01:18:15;17.60;99.90
10155;DHT22;5118;48.570;7.916;2022-09-09T01:20:51;17.60;99.90
10155;DHT22;5118;48.570;7.916;2022-09-09T01:23:41;17.60;99.90
10155;DHT22;5118;48.570;7.916;2022-09-09T01:26:26;17.60;99.90
10155;DHT22;5118;48.570;7.916;2022-09-09T01:28:58;17.70;99.90
10155;DHT22;5118;48.570;7.916;2022-09-09T01:31:37;17.60;99.90
10155;DHT22;5118;48.570;7.916;2022-09-09T01:34:10;17.60;99.90
10155;DHT22;5118;48.570;7.916;2022-09-09T01:36:42;17.60;99.90
10155;DHT22;5118;48.570;7.916;2022-09-09T01:39:12;17.60;99.90
10155;DHT22;5118;48.570;7.916;2022-09-09T01:41:43;17.60;99.90
10155;DHT22;5118;48.570;7.916;2022-09-09T01:44:13;17.60;99.90
10155;DHT22;5118;48.570;7.916;2022-09-09T01:46:44;17.60;99.90
10155;DHT22;5118;48.570;7.916;2022-09-09T01:49:16;17.60;99.90
10155;DHT22;5118;48.570;7.916;2022-09-09T01:51:48;17.60;99.90
10155;DHT22;5118;48.570;7.916;2022-09-09T01:54:23;17.60;99.90
10155;DHT22;5118;48.570;7.916;2022-09-09T01:57:02;17.50;99.90
10155;DHT22;5118;48.570;7.916;2022-09-09T01:59:53;17.50;99.90
10155;DHT22;5118;48.570;7.916;2022-09-09T02:02:32;17.50;99.90
10155;DHT22;5118;48.570;7.916;2022-09-09T02:05:17;17.30;99.90
10155;DHT22;5118;48.570;7.916;2022-09-09T02:07:52;17.20;99.90
10155;DHT22;5118;48.570;7.916;2022-09-09T02:10:36;17.10;99.90
10155;DHT22;5118;48.570;7.916;2022-09-09T02:13:17;17.10;99.90
10155;DHT22;5118;48.570;7.916;2022-09-09T02:15:53;17.00;99.90
10155;DHT22;5118;48.570;7.916;2022-09-09T02:18:26;16.90;99.90
10155;DHT22;5118;48.570;7.916;2022-09-09T02:20:56;16.90;99.90
10155;DHT22;5118;48.570;7.916;2022-09-09T02:23:28;16.80;99.90
10155;DHT22;5118;48.570;7.916;2022-09-09T02:25:58;16.70;99.90
10155;DHT22;5118;48.570;7.916;2022-09-09T02:28:30;16.60;99.90
10155;DHT22;5118;48.570;7.916;2022-09-09T02:31:00;16.50;99.90
10155;DHT22;5118;48.570;7.916;2022-09-09T02:33:38;16.50;99.90
10155;DHT22;5118;48.570;7.916;2022-09-09T02:36:08;16.40;99.90
10155;DHT22;5118;48.570;7.916;2022-09-09T02:38:42;16.40;99.90
10155;DHT22;5118;48.570;7.916;2022-09-09T02:41:15;16.40;99.90
10155;DHT22;5118;48.570;7.916;2022-09-09T02:43:45;16.40;99.90
10155;DHT22;5118;48.570;7.916;2022-09-09T02:46:24;16.40;99.90
10155;DHT22;5118;48.570;7.916;2022-09-09T02:49:00;16.50;99.90
10155;DHT22;5118;48.570;7.916;2022-09-09T02:51:40;16.60;99.90
10155;DHT22;5118;48.570;7.916;2022-09-09T02:54:20;16.70;99.90
10155;DHT22;5118;48.570;7.916;2022-09-09T02:56:53;16.80;99.90
10155;DHT22;5118;48.570;7.916;2022-09-09T02:59:32;16.90;99.90
10155;DHT22;5118;48.570;7.916;2022-09-09T03:02:01;16.90;99.90
10155;DHT22;5118;48.570;7.916;2022-09-09T03:04:31;17.00;99.90
10155;DHT22;5118;48.570;7.916;2022-09-09T03:06:59;17.10;99.90
10155;DHT22;5118;48.570;7.916;2022-09-09T03:09:28;17.10;99.90
10155;DHT22;5118;48.570;7.916;2022-09-09T03:11:56;17.20;99.90
10155;DHT22;5118;48.570;7.916;2022-09-09T03:14:25;17.20;99.90
10155;DHT22;5118;48.570;7.916;2022-09-09T03:16:56;17.20;99.90
10155;DHT22;5118;48.570;7.916;2022-09-09T03:19:29;17.20;99.90
10155;DHT22;5118;48.570;7.916;2022-09-09T03:21:59;17.10;99.90
10155;DHT22;5118;48.570;7.916;2022-09-09T03:24:30;17.10;99.90
10155;DHT22;5118;48.570;7.916;2022-09-09T03:26:59;17.10;99.90
10155;DHT22;5118;48.570;7.916;2022-09-09T03:29:27;17.10;99.90
10155;DHT22;5118;48.570;7.916;2022-09-09T03:31:59;17.00;99.90
10155;DHT22;5118;48.570;7.916;2022-09-09T03:34:28;17.00;99.90
10155;DHT22;5118;48.570;7.916;2022-09-09T03:37:00;16.90;99.90
10155;DHT22;5118;48.570;7.916;2022-09-09T03:39:28;16.90;99.90
10155;DHT22;5118;48.570;7.916;2022-09-09T03:41:58;16.80;99.90
10155;DHT22;5118;48.570;7.916;2022-09-09T03:44:27;16.70;99.90
10155;DHT22;5118;48.570;7.916;2022-09-09T03:46:55;16.70;99.90
10155;DHT22;5118;48.570;7.916;2022-09-09T03:49:25;16.60;99.90
10155;DHT22;5118;48.570;7.916;2022-09-09T03:51:56;16.60;99.90
10155;DHT22;5118;48.570;7.916;2022-09-09T03:54:26;16.50;99.90
10155;DHT22;5118;48.570;7.916;2022-09-09T03:56:55;16.50;99.90
10155;DHT22;5118;48.570;7.916;2022-09-09T03:59:24;16.40;99.90
10155;DHT22;5118;48.570;7.916;2022-09-09T04:01:53;16.40;99.90
10155;DHT22;5118;48.570;7.916;2022-09-09T04:04:21;16.30;99.90
10155;DHT22;5118;48.570;7.916;2022-09-09T04:06:51;16.30;99.90
10155;DHT22;5118;48.570;7.916;2022-09-09T04:09:19;16.30;99.90
10155;DHT22;5118;48.570;7.916;2022-09-09T04:11:49;16.20;99.90
10155;DHT22;5118;48.570;7.916;2022-09-09T04:14:18;16.10;99.90
10155;DHT22;5118;48.570;7.916;2022-09-09T04:16:47;16.10;99.90
10155;DHT22;5118;48.570;7.916;2022-09-09T04:19:15;16.00;99.90
10155;DHT22;5118;48.570;7.916;2022-09-09T04:21:43;15.90;99.90
10155;DHT22;5118;48.570;7.916;2022-09-09T04:24:13;15.80;99.90
10155;DHT22;5118;48.570;7.916;2022-09-09T04:26:43;15.80;99.90
10155;DHT22;5118;48.570;7.916;2022-09-09T04:29:12;15.80;99.90
10155;DHT22;5118;48.570;7.916;2022-09-09T04:31:40;15.80;99.90
10155;DHT22;5118;48.570;7.916;2022-09-09T04:34:09;15.70;99.90
10155;DHT22;5118;48.570;7.916;2022-09-09T04:36:38;15.70;99.90
10155;DHT22;5118;48.570;7.916;2022-09-09T04:39:08;15.60;99.90
10155;DHT22;5118;48.570;7.916;2022-09-09T04:41:37;15.60;99.90
10155;DHT22;5118;48.570;7.916;2022-09-09T04:44:05;15.50;99.90
10155;DHT22;5118;48.570;7.916;2022-09-09T04:46:34;15.50;99.90
10155;DHT22;5118;48.570;7.916;2022-09-09T04:49:02;15.50;99.90
10155;DHT22;5118;48.570;7.916;2022-09-09T04:51:32;15.50;99.90
10155;DHT22;5118;48.570;7.916;2022-09-09T04:54:00;15.50;99.90
10155;DHT22;5118;48.570;7.916;2022-09-09T04:56:32;15.40;99.90
10155;DHT22;5118;48.570;7.916;2022-09-09T04:59:02;15.30;99.90
10155;DHT22;5118;48.570;7.916;2022-09-09T05:01:40;15.30;99.90
10155;DHT22;5118;48.570;7.916;2022-09-09T05:04:08;15.30;99.90
10155;DHT22;5118;48.570;7.916;2022-09-09T05:06:37;15.30;99.90
10155;DHT22;5118;48.570;7.916;2022-09-09T05:09:05;15.40;99.90
10155;DHT22;5118;48.570;7.916;2022-09-09T05:11:34;15.40;99.90
10155;DHT22;5118;48.570;7.916;2022-09-09T05:14:10;15.50;99.90
10155;DHT22;5118;48.570;7.916;2022-09-09T05:16:41;15.60;99.90
10155;DHT22;5118;48.570;7.916;2022-09-09T05:19:11;15.70;99.90
10155;DHT22;5118;48.570;7.916;2022-09-09T05:21:46;15.80;99.90
10155;DHT22;5118;48.570;7.916;2022-09-09T05:24:17;15.90;99.90
10155;DHT22;5118;48.570;7.916;2022-09-09T05:26:47;16.00;99.90
10155;DHT22;5118;48.570;7.916;2022-09-09T05:29:18;16.20;99.90
10155;DHT22;5118;48.570;7.916;2022-09-09T05:31:46;16.30;99.90
10155;DHT22;5118;48.570;7.916;2022-09-09T05:34:18;16.40;99.90
10155;DHT22;5118;48.570;7.916;2022-09-09T05:36:48;16.50;99.90
10155;DHT22;5118;48.570;7.916;2022-09-09T05:39:16;16.60;99.90
10155;DHT22;5118;48.570;7.916;2022-09-09T05:41:45;16.70;99.90
10155;DHT22;5118;48.570;7.916;2022-09-09T05:44:13;16.70;99.90
10155;DHT22;5118;48.570;7.916;2022-09-09T05:46:44;16.80;99.90
10155;DHT22;5118;48.570;7.916;2022-09-09T05:49:13;16.80;99.90
10155;DHT22;5118;48.570;7.916;2022-09-09T05:51:43;16.90;99.90
10155;DHT22;5118;48.570;7.916;2022-09-09T05:54:13;16.90;99.90
10155;DHT22;5118;48.570;7.916;2022-09-09T05:56:45;17.00;99.90
10155;DHT22;5118;48.570;7.916;2022-09-09T05:59:18;17.00;99.90
10155;DHT22;5118;48.570;7.916;2022-09-09T06:01:47;17.10;99.90
10155;DHT22;5118;48.570;7.916;2022-09-09T06:04:21;17.10;99.90
10155;DHT22;5118;48.570;7.916;2022-09-09T06:06:52;17.20;99.90
10155;DHT22;5118;48.570;7.916;2022-09-09T06:09:22;17.20;99.90
10155;DHT22;5118;48.570;7.916;2022-09-09T06:11:50;17.30;99.90
10155;DHT22;5118;48.570;7.916;2022-09-09T06:14:20;17.30;99.90
10155;DHT22;5118;48.570;7.916;2022-09-09T06:16:52;17.40;99.90
10155;DHT22;5118;48.570;7.916;2022-09-09T06:19:22;17.50;99.90
10155;DHT22;5118;48.570;7.916;2022-09-09T06:21:56;17.60;99.90
10155;DHT22;5118;48.570;7.916;2022-09-09T06:24:24;17.60;99.90
10155;DHT22;5118;48.570;7.916;2022-09-09T06:26:52;17.70;99.90
10155;DHT22;5118;48.570;7.916;2022-09-09T06:29:25;17.80;99.90
10155;DHT22;5118;48.570;7.916;2022-09-09T06:31:55;17.90;99.90
10155;DHT22;5118;48.570;7.916;2022-09-09T06:34:26;17.90;99.90
10155;DHT22;5118;48.570;7.916;2022-09-09T06:36:57;18.00;99.90
10155;DHT22;5118;48.570;7.916;2022-09-09T06:39:32;18.00;99.90
10155;DHT22;5118;48.570;7.916;2022-09-09T06:42:00;18.00;99.90
10155;DHT22;5118;48.570;7.916;2022-09-09T06:44:44;18.00;99.90
10155;DHT22;5118;48.570;7.916;2022-09-09T06:47:22;18.00;99.90
10155;DHT22;5118;48.570;7.916;2022-09-09T06:49:51;18.00;99.90
10155;DHT22;5118;48.570;7.916;2022-09-09T06:52:20;18.10;99.90
10155;DHT22;5118;48.570;7.916;2022-09-09T06:54:49;18.10;99.90
10155;DHT22;5118;48.570;7.916;2022-09-09T06:57:21;18.20;99.90
10155;DHT22;5118;48.570;7.916;2022-09-09T07:00:07;18.30;99.90
10155;DHT22;5118;48.570;7.916;2022-09-09T07:02:38;18.40;99.90
10155;DHT22;5118;48.570;7.916;2022-09-09T07:05:09;18.50;99.90
10155;DHT22;5118;48.570;7.916;2022-09-09T07:07:39;18.50;99.90
10155;DHT22;5118;48.570;7.916;2022-09-09T07:10:10;18.60;99.90
10155;DHT22;5118;48.570;7.916;2022-09-09T07:12:39;18.50;99.90
10155;DHT22;5118;48.570;7.916;2022-09-09T07:15:10;18.60;99.90
10155;DHT22;5118;48.570;7.916;2022-09-09T07:17:44;18.50;99.90
10155;DHT22;5118;48.570;7.916;2022-09-09T07:20:14;18.50;99.90
10155;DHT22;5118;48.570;7.916;2022-09-09T07:22:43;18.50;99.90
10155;DHT22;5118;48.570;7.916;2022-09-09T07:25:11;18.50;99.90
10155;DHT22;5118;48.570;7.916;2022-09-09T07:27:41;18.50;99.90
10155;DHT22;5118;48.570;7.916;2022-09-09T07:30:11;18.60;99.90
10155;DHT22;5118;48.570;7.916;2022-09-09T07:32:51;18.70;99.90
10155;DHT22;5118;48.570;7.916;2022-09-09T07:35:19;18.90;99.90
10155;DHT22;5118;48.570;7.916;2022-09-09T07:37:47;19.10;99.90
10155;DHT22;5118;48.570;7.916;2022-09-09T07:40:18;19.30;99.90
10155;DHT22;5118;48.570;7.916;2022-09-09T07:42:49;19.40;99.90
10155;DHT22;5118;48.570;7.916;2022-09-09T07:45:17;19.60;99.90
10155;DHT22;5118;48.570;7.916;2022-09-09T07:47:45;19.90;99.90
10155;DHT22;5118;48.570;7.916;2022-09-09T07:50:16;20.10;99.90
10155;DHT22;5118;48.570;7.916;2022-09-09T07:52:45;20.30;99.90
10155;DHT22;5118;48.570;7.916;2022-09-09T07:55:14;20.50;99.90
10155;DHT22;5118;48.570;7.916;2022-09-09T07:57:43;20.60;99.90
10155;DHT22;5118;48.570;7.916;2022-09-09T08:00:13;20.80;99.90
10155;DHT22;5118;48.570;7.916;2022-09-09T08:02:47;20.90;99.90
10155;DHT22;5118;48.570;7.916;2022-09-09T08:05:17;21.10;99.90
10155;DHT22;5118;48.570;7.916;2022-09-09T08:07:47;21.20;99.90
10155;DHT22;5118;48.570;7.916;2022-09-09T08:10:15;21.30;99.90
10155;DHT22;5118;48.570;7.916;2022-09-09T08:12:47;21.40;99.90
10155;DHT22;5118;48.570;7.916;2022-09-09T08:15:36;21.50;99.90
10155;DHT22;5118;48.570;7.916;2022-09-09T08:18:04;21.50;99.90
10155;DHT22;5118;48.570;7.916;2022-09-09T08:20:35;21.50;99.90
10155;DHT22;5118;48.570;7.916;2022-09-09T08:23:04;21.50;99.90
10155;DHT22;5118;48.570;7.916;2022-09-09T08:25:34;21.60;99.90
10155;DHT22;5118;48.570;7.916;2022-09-09T08:28:02;21.60;99.90
10155;DHT22;5118;48.570;7.916;2022-09-09T08:30:31;21.70;99.90
10155;DHT22;5118;48.570;7.916;2022-09-09T08:32:59;21.80;99.90
10155;DHT22;5118;48.570;7.916;2022-09-09T08:35:28;21.80;99.90
10155;DHT22;5118;48.570;7.916;2022-09-09T08:38:03;21.90;99.90
10155;DHT22;5118;48.570;7.916;2022-09-09T08:40:40;21.90;99.90
10155;DHT22;5118;48.570;7.916;2022-09-09T08:43:15;21.90;99.90
10155;DHT22;5118;48.570;7.916;2022-09-09T08:45:52;22.00;99.90
10155;DHT22;5118;48.570;7.916;2022-09-09T08:48:36;22.10;99.90
10155;DHT22;5118;48.570;7.916;2022-09-09T08:51:09;22.20;99.90
10155;DHT22;5118;48.570;7.916;2022-09-09T08:53:43;22.40;99.90
10155;DHT22;5118;48.570;7.916;2022-09-09T08:56:16;22.60;99.90
10155;DHT22;5118;48.570;7.916;2022-09-09T08:58:50;22.80;99.90
10155;DHT22;5118;48.570;7.916;2022-09-09T09:01:42;23.00;99.90
10155;DHT22;5118;48.570;7.916;2022-09-09T09:04:31;23.10;99.90
10155;DHT22;5118;48.570;7.916;2022-09-09T09:07:08;23.10;99.90
10155;DHT22;5118;48.570;7.916;2022-09-09T09:09:48;23.10;99.90
10155;DHT22;5118;48.570;7.916;2022-09-09T09:12:20;23.10;99.90
10155;DHT22;5118;48.570;7.916;2022-09-09T09:14:50;23.00;99.90
10155;DHT22;5118;48.570;7.916;2022-09-09T09:17:20;23.00;99.90
10155;DHT22;5118;48.570;7.916;2022-09-09T09:19:50;23.00;99.90
10155;DHT22;5118;48.570;7.916;2022-09-09T09:22:20;23.00;99.90
10155;DHT22;5118;48.570;7.916;2022-09-09T09:24:56;22.90;99.90
10155;DHT22;5118;48.570;7.916;2022-09-09T09:27:32;22.90;99.90
10155;DHT22;5118;48.570;7.916;2022-09-09T09:30:15;23.00;99.90
10155;DHT22;5118;48.570;7.916;2022-09-09T09:33:02;23.10;99.90
10155;DHT22;5118;48.570;7.916;2022-09-09T09:35:33;23.20;99.90
10155;DHT22;5118;48.570;7.916;2022-09-09T09:38:17;23.20;99.90
10155;DHT22;5118;48.570;7.916;2022-09-09T09:41:09;23.20;99.90
10155;DHT22;5118;48.570;7.916;2022-09-09T09:43:41;23.30;99.90
10155;DHT22;5118;48.570;7.916;2022-09-09T09:46:22;23.20;99.90
10155;DHT22;5118;48.570;7.916;2022-09-09T09:48:58;23.00;99.90
10155;DHT22;5118;48.570;7.916;2022-09-09T09:51:29;22.80;99.90
10155;DHT22;5118;48.570;7.916;2022-09-09T09:54:12;22.40;99.90
10155;DHT22;5118;48.570;7.916;2022-09-09T09:56:48;22.00;99.90
10155;DHT22;5118;48.570;7.916;2022-09-09T09:59:23;21.50;99.90
10155;DHT22;5118;48.570;7.916;2022-09-09T10:02:19;21.20;99.90
10155;DHT22;5118;48.570;7.916;2022-09-09T10:05:01;21.00;99.90
10155;DHT22;5118;48.570;7.916;2022-09-09T10:07:32;21.00;99.90
10155;DHT22;5118;48.570;7.916;2022-09-09T10:10:00;21.20;99.90
10155;DHT22;5118;48.570;7.916;2022-09-09T10:12:39;21.40;99.90
10155;DHT22;5118;48.570;7.916;2022-09-09T10:15:24;21.60;99.90
10155;DHT22;5118;48.570;7.916;2022-09-09T10:18:01;21.90;99.90
10155;DHT22;5118;48.570;7.916;2022-09-09T10:20:38;22.10;99.90
10155;DHT22;5118;48.570;7.916;2022-09-09T10:23:21;22.10;99.90
10155;DHT22;5118;48.570;7.916;2022-09-09T10:26:22;22.10;99.90
10155;DHT22;5118;48.570;7.916;2022-09-09T10:29:05;22.10;99.90
10155;DHT22;5118;48.570;7.916;2022-09-09T10:31:43;22.20;99.90
10155;DHT22;5118;48.570;7.916;2022-09-09T10:34:33;22.40;99.90
10155;DHT22;5118;48.570;7.916;2022-09-09T10:37:14;22.60;99.90
10155;DHT22;5118;48.570;7.916;2022-09-09T10:39:54;23.00;99.90
10155;DHT22;5118;48.570;7.916;2022-09-09T10:42:31;23.30;99.90
10155;DHT22;5118;48.570;7.916;2022-09-09T10:45:14;23.40;99.90
10155;DHT22;5118;48.570;7.916;2022-09-09T10:47:59;23.60;99.90
10155;DHT22;5118;48.570;7.916;2022-09-09T10:50:44;23.60;99.90
10155;DHT22;5118;48.570;7.916;2022-09-09T10:53:37;23.70;99.90
10155;DHT22;5118;48.570;7.916;2022-09-09T10:56:11;23.80;99.90
10155;DHT22;5118;48.570;7.916;2022-09-09T10:58:43;23.90;99.90
10155;DHT22;5118;48.570;7.916;2022-09-09T11:01:21;23.90;99.90
10155;DHT22;5118;48.570;7.916;2022-09-09T11:03:55;24.00;99.90
10155;DHT22;5118;48.570;7.916;2022-09-09T11:06:29;24.20;99.90
10155;DHT22;5118;48.570;7.916;2022-09-09T11:09:02;24.50;99.90
10155;DHT22;5118;48.570;7.916;2022-09-09T11:11:34;24.80;99.90
10155;DHT22;5118;48.570;7.916;2022-09-09T11:14:10;25.40;99.90
10155;DHT22;5118;48.570;7.916;2022-09-09T11:16:42;26.10;99.90
10155;DHT22;5118;48.570;7.916;2022-09-09T11:19:16;26.90;99.90
10155;DHT22;5118;48.570;7.916;2022-09-09T11:21:49;27.50;99.80
10155;DHT22;5118;48.570;7.916;2022-09-09T11:24:23;28.00;98.80
10155;DHT22;5118;48.570;7.916;2022-09-09T11:26:57;28.80;92.70
10155;DHT22;5118;48.570;7.916;2022-09-09T11:32:57;28.00;92.10
10155;DHT22;5118;48.570;7.916;2022-09-09T11:35:39;27.70;92.60
10155;DHT22;5118;48.570;7.916;2022-09-09T11:38:19;27.80;89.80
10155;DHT22;5118;48.570;7.916;2022-09-09T11:40:55;28.10;89.80
10155;DHT22;5118;48.570;7.916;2022-09-09T11:43:29;28.50;87.70
10155;DHT22;5118;48.570;7.916;2022-09-09T11:46:01;28.40;87.30
10155;DHT22;5118;48.570;7.916;2022-09-09T11:48:35;28.40;87.60
10155;DHT22;5118;48.570;7.916;2022-09-09T11:51:06;28.20;84.60
10155;DHT22;5118;48.570;7.916;2022-09-09T11:53:50;27.60;87.30
10155;DHT22;5118;48.570;7.916;2022-09-09T11:56:27;26.70;93.10
10155;DHT22;5118;48.570;7.916;2022-09-09T11:58:59;25.60;94.40
10155;DHT22;5118;48.570;7.916;2022-09-09T12:01:34;25.00;94.70
10155;DHT22;5118;48.570;7.916;2022-09-09T12:04:35;24.60;95.20
10155;DHT22;5118;48.570;7.916;2022-09-09T12:07:25;24.40;95.60
10155;DHT22;5118;48.570;7.916;2022-09-09T12:09:58;24.50;95.50
10155;DHT22;5118;48.570;7.916;2022-09-09T12:12:30;24.30;95.30
10155;DHT22;5118;48.570;7.916;2022-09-09T12:15:02;24.40;95.80
10155;DHT22;5118;48.570;7.916;2022-09-09T12:17:36;24.50;95.70
10155;DHT22;5118;48.570;7.916;2022-09-09T12:20:18;25.10;95.70
10155;DHT22;5118;48.570;7.916;2022-09-09T12:23:19;26.00;94.30
10155;DHT22;5118;48.570;7.916;2022-09-09T12:25:58;27.10;92.10
10155;DHT22;5118;48.570;7.916;2022-09-09T12:28:45;27.10;90.30
10155;DHT22;5118;48.570;7.916;2022-09-09T12:31:20;26.90;86.70
10155;DHT22;5118;48.570;7.916;2022-09-09T12:33:50;26.50;88.90
10155;DHT22;5118;48.570;7.916;2022-09-09T12:36:23;26.00;90.30
10155;DHT22;5118;48.570;7.916;2022-09-09T12:38:53;25.70;91.50
10155;DHT22;5118;48.570;7.916;2022-09-09T12:41:23;25.30;92.90
10155;DHT22;5118;48.570;7.916;2022-09-09T12:44:02;24.90;94.90
10155;DHT22;5118;48.570;7.916;2022-09-09T12:46:35;24.40;95.70
10155;DHT22;5118;48.570;7.916;2022-09-09T12:49:04;24.00;97.00
10155;DHT22;5118;48.570;7.916;2022-09-09T12:51:34;23.70;98.20
10155;DHT22;5118;48.570;7.916;2022-09-09T12:54:04;23.60;99.30
10155;DHT22;5118;48.570;7.916;2022-09-09T12:56:33;23.60;99.90
10155;DHT22;5118;48.570;7.916;2022-09-09T12:59:02;23.60;99.90
10155;DHT22;5118;48.570;7.916;2022-09-09T13:01:31;23.40;99.90
10155;DHT22;5118;48.570;7.916;2022-09-09T13:04:00;23.30;99.90
10155;DHT22;5118;48.570;7.916;2022-09-09T13:06:30;23.10;99.90
10155;DHT22;5118;48.570;7.916;2022-09-09T13:09:01;23.80;99.90
10155;DHT22;5118;48.570;7.916;2022-09-09T13:11:35;24.70;99.50
10155;DHT22;5118;48.570;7.916;2022-09-09T13:14:05;25.40;96.80
10155;DHT22;5118;48.570;7.916;2022-09-09T13:16:35;25.80;96.60
10155;DHT22;5118;48.570;7.916;2022-09-09T13:19:13;26.20;96.00
10155;DHT22;5118;48.570;7.916;2022-09-09T13:21:42;26.60;94.80
10155;DHT22;5118;48.570;7.916;2022-09-09T13:24:27;26.80;93.80
10155;DHT22;5118;48.570;7.916;2022-09-09T13:26:56;26.90;91.10
10155;DHT22;5118;48.570;7.916;2022-09-09T13:29:26;27.10;91.80
10155;DHT22;5118;48.570;7.916;2022-09-09T13:31:54;27.30;91.20
10155;DHT22;5118;48.570;7.916;2022-09-09T13:34:33;27.70;90.90
10155;DHT22;5118;48.570;7.916;2022-09-09T13:37:03;28.00;89.80
10155;DHT22;5118;48.570;7.916;2022-09-09T13:39:35;28.10;89.30
10155;DHT22;5118;48.570;7.916;2022-09-09T13:42:23;28.90;88.00
10155;DHT22;5118;48.570;7.916;2022-09-09T13:44:52;30.00;83.60
10155;DHT22;5118;48.570;7.916;2022-09-09T13:47:26;31.00;81.60
10155;DHT22;5118;48.570;7.916;2022-09-09T13:49:55;31.90;78.70
10155;DHT22;5118;48.570;7.916;2022-09-09T13:52:23;32.00;74.40
10155;DHT22;5118;48.570;7.916;2022-09-09T13:54:54;31.20;73.00
10155;DHT22;5118;48.570;7.916;2022-09-09T13:57:24;30.30;72.90
10155;DHT22;5118;48.570;7.916;2022-09-09T13:59:53;30.10;73.50
10155;DHT22;5118;48.570;7.916;2022-09-09T14:02:37;30.20;73.70
10155;DHT22;5118;48.570;7.916;2022-09-09T14:05:06;31.00;73.60
10155;DHT22;5118;48.570;7.916;2022-09-09T14:07:35;32.00;72.30
10155;DHT22;5118;48.570;7.916;2022-09-09T14:10:07;32.70;66.80
10155;DHT22;5118;48.570;7.916;2022-09-09T14:12:36;32.50;62.00
10155;DHT22;5118;48.570;7.916;2022-09-09T14:15:16;31.60;62.60
10155;DHT22;5118;48.570;7.916;2022-09-09T14:17:44;30.40;64.40
10155;DHT22;5118;48.570;7.916;2022-09-09T14:20:12;29.40;66.60
10155;DHT22;5118;48.570;7.916;2022-09-09T14:22:42;28.60;68.20
10155;DHT22;5118;48.570;7.916;2022-09-09T14:25:12;27.90;70.20
10155;DHT22;5118;48.570;7.916;2022-09-09T14:27:41;27.20;72.60
10155;DHT22;5118;48.570;7.916;2022-09-09T14:30:10;26.70;74.20
10155;DHT22;5118;48.570;7.916;2022-09-09T14:32:38;26.20;75.40
10155;DHT22;5118;48.570;7.916;2022-09-09T14:35:07;25.80;77.70
10155;DHT22;5118;48.570;7.916;2022-09-09T14:37:35;25.30;80.70
10155;DHT22;5118;48.570;7.916;2022-09-09T14:40:06;24.40;84.90
10155;DHT22;5118;48.570;7.916;2022-09-09T14:42:36;23.40;94.30
10155;DHT22;5118;48.570;7.916;2022-09-09T14:45:06;22.00;99.90
10155;DHT22;5118;48.570;7.916;2022-09-09T14:47:34;20.50;99.90
10155;DHT22;5118;48.570;7.916;2022-09-09T14:50:04;19.10;99.90
10155;DHT22;5118;48.570;7.916;2022-09-09T14:52:32;18.00;99.90
10155;DHT22;5118;48.570;7.916;2022-09-09T14:55:01;17.40;99.90
10155;DHT22;5118;48.570;7.916;2022-09-09T14:57:29;17.10;99.90
10155;DHT22;5118;48.570;7.916;2022-09-09T14:59:58;17.10;99.90
10155;DHT22;5118;48.570;7.916;2022-09-09T15:02:26;17.20;99.90
10155;DHT22;5118;48.570;7.916;2022-09-09T15:04:57;17.70;99.90
10155;DHT22;5118;48.570;7.916;2022-09-09T15:07:25;18.20;99.90
10155;DHT22;5118;48.570;7.916;2022-09-09T15:09:55;18.60;99.90
10155;DHT22;5118;48.570;7.916;2022-09-09T15:12:23;19.00;99.90
10155;DHT22;5118;48.570;7.916;2022-09-09T15:14:52;19.20;99.90
10155;DHT22;5118;48.570;7.916;2022-09-09T15:17:23;19.50;99.90
10155;DHT22;5118;48.570;7.916;2022-09-09T15:19:53;19.80;99.90
10155;DHT22;5118;48.570;7.916;2022-09-09T15:22:22;20.00;99.90
10155;DHT22;5118;48.570;7.916;2022-09-09T15:24:51;20.20;99.90
10155;DHT22;5118;48.570;7.916;2022-09-09T15:27:19;20.30;99.90
10155;DHT22;5118;48.570;7.916;2022-09-09T15:29:47;20.40;99.90
10155;DHT22;5118;48.570;7.916;2022-09-09T15:32:15;20.40;99.90
10155;DHT22;5118;48.570;7.916;2022-09-09T15:34:45;20.40;99.90
10155;DHT22;5118;48.570;7.916;2022-09-09T15:37:13;20.30;99.90
10155;DHT22;5118;48.570;7.916;2022-09-09T15:39:41;20.30;99.90
10155;DHT22;5118;48.570;7.916;2022-09-09T15:42:09;20.30;99.90
10155;DHT22;5118;48.570;7.916;2022-09-09T15:44:41;20.40;99.90
10155;DHT22;5118;48.570;7.916;2022-09-09T15:47:12;20.50;99.90
10155;DHT22;5118;48.570;7.916;2022-09-09T15:49:41;20.50;99.90
10155;DHT22;5118;48.570;7.916;2022-09-09T15:52:11;20.50;99.90
10155;DHT22;5118;48.570;7.916;2022-09-09T15:54:40;20.50;99.90
10155;DHT22;5118;48.570;7.916;2022-09-09T15:57:12;20.50;99.90
10155;DHT22;5118;48.570;7.916;2022-09-09T15:59:40;20.50;99.90
10155;DHT22;5118;48.570;7.916;2022-09-09T16:02:09;20.50;99.90
10155;DHT22;5118;48.570;7.916;2022-09-09T16:04:38;20.40;99.90
10155;DHT22;5118;48.570;7.916;2022-09-09T16:07:06;20.40;99.90
10155;DHT22;5118;48.570;7.916;2022-09-09T16:09:36;20.30;99.90
10155;DHT22;5118;48.570;7.916;2022-09-09T16:12:05;20.30;99.90
10155;DHT22;5118;48.570;7.916;2022-09-09T16:14:36;20.20;99.90
10155;DHT22;5118;48.570;7.916;2022-09-09T16:17:06;20.20;99.90
10155;DHT22;5118;48.570;7.916;2022-09-09T16:19:34;20.20;99.90
10155;DHT22;5118;48.570;7.916;2022-09-09T16:22:03;20.20;99.90
10155;DHT22;5118;48.570;7.916;2022-09-09T16:24:35;20.20;99.90
10155;DHT22;5118;48.570;7.916;2022-09-09T16:27:03;20.30;99.90
10155;DHT22;5118;48.570;7.916;2022-09-09T16:29:31;20.30;99.90